createdAt,value
2019-01-31T00:04:19.046Z,26.85
2019-01-31T00:09:26.645Z,26.72
2019-01-31T00:14:34.317Z,26.06
2019-01-31T00:19:42.191Z,27.50
2019-01-31T00:24:49.953Z,25.97
2019-01-31T00:29:57.749Z,26.66
2019-01-31T00:35:05.462Z,26.88
2019-01-31T00:40:13.206Z,25.76
2019-01-31T00:45:21.101Z,25.88
2019-01-31T00:50:28.741Z,28.37
2019-01-31T00:55:36.548Z,26.62
2019-01-31T01:00:44.676Z,27.59
2019-01-31T01:05:52.508Z,26.59
2019-01-31T01:11:00.111Z,27.34
2019-01-31T01:16:07.790Z,27.47
2019-01-31T01:21:15.449Z,28.85
2019-01-31T01:26:24.101Z,26.80
2019-01-31T01:31:31.717Z,28.52
2019-01-31T01:36:39.435Z,29.52
2019-01-31T01:41:47.133Z,27.47
2019-01-31T01:46:54.797Z,28.86
2019-01-31T01:52:02.411Z,29.36
2019-01-31T01:57:10.247Z,31.63
2019-01-31T02:02:17.982Z,32.88
2019-01-31T02:07:25.629Z,30.86
2019-01-31T02:12:33.250Z,31.34
2019-01-31T02:17:40.929Z,29.83
2019-01-31T02:22:49.230Z,31.28
2019-01-31T02:27:56.870Z,32.68
2019-01-31T02:33:04.466Z,35.83
2019-01-31T02:38:12.086Z,38.22
2019-01-31T02:43:19.926Z,39.10
2019-01-31T02:48:27.553Z,37.86
2019-01-31T02:53:35.320Z,37.37
2019-01-31T02:58:43.077Z,37.51
2019-01-31T03:03:50.966Z,39.40
2019-01-31T03:08:58.539Z,41.39
2019-01-31T03:14:10.386Z,39.11
2019-01-31T03:19:13.470Z,40.36
2019-01-31T03:24:21.175Z,41.44
2019-01-31T03:29:28.870Z,42.05
2019-01-31T03:34:36.462Z,38.62
2019-01-31T03:39:44.166Z,39.19
2019-01-31T03:44:52.193Z,38.96
2019-01-31T03:50:00.478Z,77.17
2019-01-31T03:55:08.014Z,42.54
2019-01-31T04:00:15.646Z,72.57
2019-01-31T04:05:23.261Z,43.00
2019-01-31T04:10:30.998Z,42.01
2019-01-31T04:15:38.772Z,41.52
2019-01-31T04:20:46.527Z,43.04
2019-01-31T04:25:54.809Z,45.44
2019-01-31T04:31:02.617Z,46.45
2019-01-31T04:36:11.125Z,77.39
2019-01-31T04:41:18.750Z,46.31
2019-01-31T04:46:26.417Z,44.98
2019-01-31T04:51:34.042Z,46.15
2019-01-31T04:56:41.741Z,46.79
2019-01-31T05:01:49.441Z,44.07
2019-01-31T05:06:57.470Z,43.28
2019-01-31T05:12:05.178Z,38.51
2019-01-31T05:17:12.774Z,38.63
2019-01-31T05:22:20.450Z,39.36
2019-01-31T05:27:28.139Z,40.92
2019-01-31T05:32:35.757Z,37.56
2019-01-31T05:37:43.366Z,41.12
2019-01-31T05:42:51.078Z,36.86
2019-01-31T05:47:58.729Z,34.80
2019-01-31T05:53:06.445Z,34.11
2019-01-31T05:58:14.150Z,34.09
2019-01-31T06:03:21.950Z,31.42
2019-01-31T06:08:29.715Z,33.53
2019-01-31T06:13:37.369Z,32.83
2019-01-31T06:18:45.354Z,58.45
2019-01-31T06:23:52.938Z,31.62
2019-01-31T06:29:00.914Z,32.56
2019-01-31T06:34:08.528Z,53.40
2019-01-31T06:39:16.322Z,28.81
2019-01-31T06:44:24.111Z,29.72
2019-01-31T06:49:32.697Z,28.04
2019-01-31T06:54:40.285Z,29.35
2019-01-31T06:59:48.234Z,26.63
2019-01-31T07:04:55.981Z,30.63
2019-01-31T07:10:03.844Z,32.32
2019-01-31T07:15:11.789Z,29.55
2019-01-31T07:20:19.508Z,30.55
2019-01-31T07:25:27.138Z,31.71
2019-01-31T07:30:34.869Z,29.16
2019-01-31T07:35:42.574Z,28.52
2019-01-31T07:40:50.473Z,32.87
2019-01-31T07:45:58.464Z,33.61
2019-01-31T07:51:06.251Z,32.36
2019-01-31T07:56:13.833Z,32.08
2019-01-31T08:01:21.770Z,31.03
2019-01-31T08:06:29.370Z,33.25
2019-01-31T08:11:37.181Z,33.05
2019-01-31T08:16:44.784Z,30.56
2019-01-31T08:21:52.521Z,30.72
2019-01-31T08:27:00.298Z,30.55
2019-01-31T08:32:07.994Z,31.38
2019-01-31T08:37:16.532Z,31.62
2019-01-31T08:42:24.386Z,30.90
2019-01-31T08:47:31.990Z,29.52
2019-01-31T08:52:41.763Z,31.05
2019-01-31T08:57:47.927Z,31.70
2019-01-31T09:02:55.818Z,29.88
2019-01-31T09:08:04.603Z,28.07
2019-01-31T09:13:12.410Z,27.03
2019-01-31T09:18:20.198Z,25.90
2019-01-31T09:23:27.844Z,24.09
2019-01-31T09:28:35.610Z,25.21
2019-01-31T09:33:43.342Z,23.80
2019-01-31T09:38:50.946Z,23.15
2019-01-31T09:43:58.630Z,23.33
2019-01-31T09:49:06.298Z,22.18
2019-01-31T09:54:14.004Z,23.11
2019-01-31T09:59:21.669Z,22.42
2019-01-31T10:04:30.374Z,22.09
2019-01-31T10:09:37.966Z,22.60
2019-01-31T10:14:45.722Z,25.28
2019-01-31T10:19:53.600Z,24.28
2019-01-31T10:25:01.293Z,37.90
2019-01-31T10:30:08.870Z,23.05
2019-01-31T10:35:16.753Z,23.71
2019-01-31T10:40:24.465Z,24.24
2019-01-31T10:45:32.990Z,22.11
2019-01-31T10:50:41.021Z,46.27
2019-01-31T10:55:48.924Z,25.46
2019-01-31T11:00:56.564Z,24.60
2019-01-31T11:06:04.453Z,26.62
2019-01-31T11:11:12.113Z,27.26
2019-01-31T11:16:19.789Z,29.18
2019-01-31T11:21:27.406Z,30.42
2019-01-31T11:26:35.149Z,34.28
2019-01-31T11:31:42.742Z,33.29
2019-01-31T11:36:50.625Z,37.98
2019-01-31T11:41:58.386Z,38.84
2019-01-31T11:47:06.006Z,40.49
2019-01-31T11:52:13.600Z,37.85
2019-01-31T11:57:21.313Z,38.58
2019-01-31T12:02:29.133Z,35.16
2019-01-31T12:07:36.783Z,34.48
2019-01-31T12:12:44.549Z,34.14
2019-01-31T12:17:52.209Z,36.24
2019-01-31T12:22:59.814Z,38.28
2019-01-31T12:28:08.484Z,33.00
2019-01-31T12:33:16.162Z,32.84
2019-01-31T12:38:23.751Z,30.27
2019-01-31T12:43:35.330Z,32.82
2019-01-31T12:48:38.719Z,32.33
2019-01-31T12:53:46.341Z,33.68
2019-01-31T12:58:54.257Z,35.07
2019-01-31T13:04:02.101Z,34.67
2019-01-31T13:09:09.793Z,35.16
2019-01-31T13:14:17.401Z,35.35
2019-01-31T13:19:25.038Z,33.55
2019-01-31T13:24:32.891Z,33.65
2019-01-31T13:29:40.435Z,32.28
2019-01-31T13:34:49.082Z,29.90
2019-01-31T13:39:56.803Z,30.82
2019-01-31T13:45:04.518Z,33.21
2019-01-31T13:50:12.212Z,31.96
2019-01-31T13:55:19.794Z,33.51
2019-01-31T14:00:27.966Z,30.59
2019-01-31T14:05:35.652Z,32.34
2019-01-31T14:10:43.357Z,29.02
2019-01-31T14:15:53.790Z,27.77
2019-01-31T14:20:58.217Z,28.68
2019-01-31T14:26:05.918Z,27.34
2019-01-31T14:31:13.713Z,25.72
2019-01-31T14:36:21.331Z,23.59
2019-01-31T14:41:28.935Z,21.34
2019-01-31T14:46:36.549Z,23.92
2019-01-31T14:51:44.162Z,20.61
2019-01-31T14:56:51.859Z,19.56
2019-01-31T15:01:59.573Z,18.13
2019-01-31T15:07:07.285Z,20.38
2019-01-31T15:12:14.929Z,18.05
2019-01-31T15:17:22.650Z,17.26
2019-01-31T15:22:31.056Z,18.05
2019-01-31T15:27:38.811Z,17.83
2019-01-31T15:32:46.557Z,19.98
2019-01-31T15:37:54.548Z,18.95
2019-01-31T15:43:02.439Z,20.18
2019-01-31T15:48:10.712Z,21.27
2019-01-31T15:53:17.313Z,18.71
2019-01-31T15:58:25.176Z,18.76
2019-01-31T16:03:33.164Z,18.83
2019-01-31T16:08:40.843Z,19.59
2019-01-31T16:13:48.815Z,21.36
2019-01-31T16:18:56.338Z,22.15
2019-01-31T16:24:04.262Z,20.45
2019-01-31T16:29:12.017Z,21.17
2019-01-31T16:34:19.729Z,22.72
2019-01-31T16:39:27.441Z,24.80
2019-01-31T16:44:35.228Z,27.45
2019-01-31T16:49:42.898Z,32.02
2019-01-31T16:54:50.922Z,28.82
2019-01-31T16:59:58.701Z,25.25
2019-01-31T17:05:06.313Z,22.78
2019-01-31T17:10:13.980Z,20.53
2019-01-31T17:15:21.583Z,17.27
2019-01-31T17:20:29.262Z,16.80
2019-01-31T17:25:36.953Z,17.44
2019-01-31T17:30:44.898Z,17.58
2019-01-31T17:35:52.497Z,16.22
2019-01-31T17:41:00.393Z,14.16
2019-01-31T17:46:08.042Z,16.30
2019-01-31T17:51:15.752Z,14.61
2019-01-31T17:56:23.374Z,15.72
2019-01-31T18:01:31.254Z,15.20
2019-01-31T18:06:40.587Z,17.95
2019-01-31T18:11:48.314Z,16.88
2019-01-31T18:16:56.114Z,14.24
2019-01-31T18:22:03.775Z,15.75
2019-01-31T18:27:11.406Z,25.72
2019-01-31T18:32:19.213Z,15.05
2019-01-31T18:37:26.878Z,13.90
2019-01-31T18:42:34.539Z,15.75
2019-01-31T18:47:42.440Z,14.50
2019-01-31T18:52:50.218Z,15.33
2019-01-31T18:57:57.831Z,14.38
2019-01-31T19:03:05.525Z,12.94
2019-01-31T19:08:13.122Z,12.59
2019-01-31T19:13:20.816Z,12.27
2019-01-31T19:18:28.421Z,12.52
2019-01-31T19:23:36.006Z,11.62
2019-01-31T19:28:43.704Z,10.29
2019-01-31T19:33:51.887Z,7.43
2019-01-31T19:38:58.793Z,14.62
2019-01-31T19:44:06.558Z,8.98
2019-01-31T19:49:14.270Z,7.65
2019-01-31T19:54:22.043Z,7.65
2019-01-31T19:59:29.650Z,8.43
2019-01-31T20:04:37.525Z,7.53
2019-01-31T20:09:45.142Z,9.29
2019-01-31T20:14:53.313Z,7.44
2019-01-31T20:20:01.423Z,7.60
2019-01-31T20:25:09.142Z,8.43
2019-01-31T20:30:16.722Z,18.40
2019-01-31T20:35:24.303Z,8.30
2019-01-31T20:40:32.094Z,8.92
2019-01-31T20:45:39.826Z,6.91
2019-01-31T20:50:47.612Z,8.48
2019-01-31T20:55:55.160Z,8.04
2019-01-31T21:01:05.780Z,8.18
2019-01-31T21:06:10.243Z,7.59
2019-01-31T21:11:17.925Z,9.90
2019-01-31T21:16:26.517Z,8.60
2019-01-31T21:21:34.265Z,7.85
2019-01-31T21:26:42.006Z,7.45
2019-01-31T21:31:49.633Z,7.33
2019-01-31T21:36:57.506Z,7.58
2019-01-31T21:42:07.829Z,6.78
2019-01-31T21:47:12.529Z,7.87
2019-01-31T21:52:20.270Z,6.88
2019-01-31T21:57:28.286Z,7.68
2019-01-31T22:02:35.977Z,6.61
2019-01-31T22:07:43.837Z,6.52
2019-01-31T22:12:58.714Z,8.24
2019-01-31T22:17:59.721Z,7.43
2019-01-31T22:23:03.595Z,6.50
2019-01-31T22:28:11.354Z,8.80
2019-01-31T22:33:19.706Z,7.92
2019-01-31T22:38:27.410Z,7.19
2019-01-31T22:43:35.409Z,7.14
2019-01-31T22:48:43.272Z,7.07
2019-01-31T22:53:51.236Z,6.76
2019-01-31T22:58:59.034Z,6.69
2019-01-31T23:04:06.721Z,6.53
2019-01-31T23:09:14.427Z,5.68
2019-01-31T23:14:23.427Z,7.04
2019-01-31T23:19:31.285Z,7.15
2019-01-31T23:24:41.082Z,7.41
2019-01-31T23:29:49.139Z,7.62
2019-01-31T23:34:56.926Z,8.44
2019-01-31T23:40:04.720Z,8.12
2019-01-31T23:45:12.470Z,8.35
2019-01-31T23:50:20.532Z,8.57
2019-01-31T23:55:28.651Z,8.70
